CHH722 VTBS-ZJHK
Flight info
| Callsign | CHH722 |
|---|---|
| Flight time | 1h 46m |
| Altitude | 39000 |
| Route | SELKA1J SELKA A1 SANOT Y15 GUROK A202 VILAO/K0839F390 A202 ASSAD/K0837S1190 ASSAD9XA |
| Aircraft | A339/H-SADE1E2E3GHIJ3J5M1P2RWXY/LB2D1 |
Departure
| Time | 2026-04-26 08:12 |
|---|---|
| Airport | Suvarnabhumi Airport (VTBS) |
Arrival
| Time | 2026-04-26 09:58 |
|---|---|
| Airport | Haikou Meilan International Airport (ZJHK) |
| Time | Latitude | Longitude | Altitude | Speed | Heading |
|---|---|---|---|---|---|
| 2026-04-26 07:43 | 13.68640 | 100.75370 | 23 ft | 0 kts | 284° |
| 2026-04-26 08:01 | 13.68638 | 100.75376 | 23 ft | 2 kts | 284° |
| 2026-04-26 08:01 | 13.68634 | 100.75391 | 23 ft | 2 kts | 284° |
| 2026-04-26 08:01 | 13.68631 | 100.75406 | 23 ft | 2 kts | 284° |
| 2026-04-26 08:02 | 13.68627 | 100.75420 | 23 ft | 2 kts | 284° |
| 2026-04-26 08:02 | 13.68622 | 100.75435 | 23 ft | 2 kts | 307° |
| 2026-04-26 08:02 | 13.68611 | 100.75446 | 23 ft | 2 kts | 326° |
| 2026-04-26 08:02 | 13.68598 | 100.75452 | 23 ft | 2 kts | 346° |
| 2026-04-26 08:03 | 13.68583 | 100.75455 | 23 ft | 2 kts | 5° |
| 2026-04-26 08:03 | 13.68575 | 100.75454 | 23 ft | 0 kts | 15° |
| 2026-04-26 08:03 | 13.68595 | 100.75458 | 23 ft | 6 kts | 13° |
| 2026-04-26 08:03 | 13.68630 | 100.75468 | 23 ft | 2 kts | 14° |
| 2026-04-26 08:04 | 13.68635 | 100.75469 | 23 ft | 0 kts | 14° |
| 2026-04-26 08:06 | 13.68648 | 100.75472 | 23 ft | 3 kts | 14° |
| 2026-04-26 08:07 | 13.68676 | 100.75480 | 23 ft | 5 kts | 14° |
| 2026-04-26 08:07 | 13.68722 | 100.75492 | 23 ft | 7 kts | 15° |
| 2026-04-26 08:07 | 13.68781 | 100.75508 | 23 ft | 9 kts | 14° |
| 2026-04-26 08:07 | 13.68843 | 100.75537 | 23 ft | 10 kts | 51° |
| 2026-04-26 08:08 | 13.68846 | 100.75610 | 23 ft | 11 kts | 104° |
| 2026-04-26 08:08 | 13.68826 | 100.75693 | 23 ft | 12 kts | 104° |
| 2026-04-26 08:08 | 13.68808 | 100.75781 | 23 ft | 11 kts | 84° |
| 2026-04-26 08:08 | 13.68860 | 100.75828 | 23 ft | 11 kts | 17° |
| 2026-04-26 08:09 | 13.68940 | 100.75850 | 22 ft | 12 kts | 14° |
| 2026-04-26 08:09 | 13.69033 | 100.75875 | 21 ft | 14 kts | 14° |
| 2026-04-26 08:09 | 13.69141 | 100.75903 | 20 ft | 16 kts | 14° |
| 2026-04-26 08:09 | 13.69209 | 100.75933 | 20 ft | 5 kts | 70° |
| 2026-04-26 08:10 | 13.69206 | 100.75974 | 20 ft | 7 kts | 104° |
| 2026-04-26 08:10 | 13.69187 | 100.76036 | 20 ft | 10 kts | 120° |
| 2026-04-26 08:10 | 13.69120 | 100.76081 | 20 ft | 13 kts | 171° |
| 2026-04-26 08:10 | 13.69021 | 100.76062 | 20 ft | 15 kts | 194° |
| 2026-04-26 08:11 | 13.68900 | 100.76031 | 20 ft | 21 kts | 195° |
| 2026-04-26 08:11 | 13.68651 | 100.75966 | 21 ft | 66 kts | 195° |
| 2026-04-26 08:11 | 13.67979 | 100.75792 | 20 ft | 128 kts | 195° |
| 2026-04-26 08:11 | 13.66946 | 100.75526 | 64 ft | 173 kts | 192° |
| 2026-04-26 08:12 | 13.65759 | 100.75223 | 622 ft | 175 kts | 193° |
| 2026-04-26 08:12 | 13.64562 | 100.74973 | 1318 ft | 173 kts | 181° |
| 2026-04-26 08:12 | 13.63421 | 100.75047 | 2049 ft | 165 kts | 173° |
| 2026-04-26 08:12 | 13.62244 | 100.75175 | 2419 ft | 179 kts | 175° |
| 2026-04-26 08:13 | 13.60922 | 100.75256 | 2739 ft | 198 kts | 176° |
| 2026-04-26 08:13 | 13.59505 | 100.75492 | 3031 ft | 218 kts | 156° |
| 2026-04-26 08:13 | 13.58307 | 100.76497 | 3428 ft | 234 kts | 119° |
| 2026-04-26 08:13 | 13.57905 | 100.78151 | 3871 ft | 250 kts | 90° |
| 2026-04-26 08:14 | 13.57957 | 100.79986 | 4317 ft | 265 kts | 94° |
| 2026-04-26 08:14 | 13.57671 | 100.81880 | 4910 ft | 273 kts | 101° |
| 2026-04-26 08:14 | 13.57460 | 100.83827 | 5615 ft | 277 kts | 93° |
| 2026-04-26 08:14 | 13.57371 | 100.85784 | 6391 ft | 278 kts | 92° |
| 2026-04-26 08:15 | 13.57304 | 100.87769 | 7088 ft | 281 kts | 92° |
| 2026-04-26 08:15 | 13.57265 | 100.89778 | 7764 ft | 285 kts | 91° |
| 2026-04-26 08:15 | 13.57239 | 100.91814 | 8452 ft | 288 kts | 91° |
| 2026-04-26 08:15 | 13.57219 | 100.93874 | 9118 ft | 291 kts | 90° |
| 2026-04-26 08:16 | 13.57202 | 100.95964 | 9776 ft | 295 kts | 90° |
| 2026-04-26 08:16 | 13.57188 | 100.98076 | 10399 ft | 300 kts | 90° |
| 2026-04-26 08:16 | 13.57171 | 101.00281 | 10767 ft | 315 kts | 90° |
| 2026-04-26 08:16 | 13.57428 | 101.02526 | 11292 ft | 323 kts | 72° |
| 2026-04-26 08:17 | 13.58479 | 101.04564 | 12004 ft | 325 kts | 52° |
| 2026-04-26 08:17 | 13.59993 | 101.06284 | 12688 ft | 327 kts | 47° |
| 2026-04-26 08:17 | 13.61547 | 101.07979 | 13299 ft | 332 kts | 47° |
| 2026-04-26 08:17 | 13.63132 | 101.09714 | 13938 ft | 336 kts | 47° |
| 2026-04-26 08:18 | 13.64745 | 101.11488 | 14604 ft | 339 kts | 47° |
| 2026-04-26 08:18 | 13.66348 | 101.13258 | 15251 ft | 341 kts | 46° |
| 2026-04-26 08:18 | 13.67961 | 101.15043 | 15867 ft | 345 kts | 46° |
| 2026-04-26 08:18 | 13.69601 | 101.16861 | 16493 ft | 348 kts | 46° |
| 2026-04-26 08:19 | 13.71252 | 101.18694 | 17098 ft | 351 kts | 46° |
| 2026-04-26 08:19 | 13.72911 | 101.20537 | 17708 ft | 353 kts | 46° |
| 2026-04-26 08:19 | 13.74582 | 101.22393 | 18306 ft | 356 kts | 46° |
| 2026-04-26 08:19 | 13.76270 | 101.24269 | 18886 ft | 360 kts | 46° |
| 2026-04-26 08:20 | 13.77960 | 101.26148 | 19481 ft | 362 kts | 46° |
| 2026-04-26 08:20 | 13.79680 | 101.28062 | 20051 ft | 365 kts | 46° |
| 2026-04-26 08:20 | 13.81406 | 101.29984 | 20616 ft | 368 kts | 46° |
| 2026-04-26 08:20 | 13.83151 | 101.31928 | 21168 ft | 370 kts | 46° |
| 2026-04-26 08:21 | 13.84898 | 101.33873 | 21710 ft | 372 kts | 46° |
| 2026-04-26 08:21 | 13.86672 | 101.35848 | 22216 ft | 375 kts | 46° |
| 2026-04-26 08:21 | 13.88427 | 101.37806 | 22724 ft | 378 kts | 46° |
| 2026-04-26 08:21 | 13.90225 | 101.39810 | 23231 ft | 381 kts | 46° |
| 2026-04-26 08:22 | 13.92024 | 101.41817 | 23722 ft | 384 kts | 45° |
| 2026-04-26 08:22 | 13.93838 | 101.43841 | 24222 ft | 386 kts | 45° |
| 2026-04-26 08:22 | 13.95660 | 101.45874 | 24725 ft | 388 kts | 45° |
| 2026-04-26 08:22 | 13.97511 | 101.47938 | 25215 ft | 391 kts | 45° |
| 2026-04-26 08:23 | 13.99346 | 101.49985 | 25682 ft | 393 kts | 45° |
| 2026-04-26 08:23 | 14.01199 | 101.52054 | 26135 ft | 396 kts | 45° |
| 2026-04-26 08:23 | 14.03080 | 101.54154 | 26582 ft | 398 kts | 45° |
| 2026-04-26 08:23 | 14.04956 | 101.56251 | 27009 ft | 401 kts | 45° |
| 2026-04-26 08:24 | 14.06860 | 101.58379 | 27448 ft | 403 kts | 44° |
| 2026-04-26 08:24 | 14.08773 | 101.60518 | 27878 ft | 406 kts | 45° |
| 2026-04-26 08:24 | 14.10691 | 101.62659 | 28307 ft | 408 kts | 44° |
| 2026-04-26 08:24 | 14.12605 | 101.64799 | 28731 ft | 410 kts | 44° |
| 2026-04-26 08:25 | 14.14531 | 101.66955 | 29133 ft | 413 kts | 44° |
| 2026-04-26 08:25 | 14.16492 | 101.69148 | 29506 ft | 416 kts | 45° |
| 2026-04-26 08:25 | 14.18463 | 101.71355 | 29871 ft | 419 kts | 44° |
| 2026-04-26 08:25 | 14.20432 | 101.73559 | 30240 ft | 422 kts | 44° |
| 2026-04-26 08:26 | 14.22435 | 101.75804 | 30598 ft | 425 kts | 44° |
| 2026-04-26 08:26 | 14.24435 | 101.78045 | 30858 ft | 428 kts | 44° |
| 2026-04-26 08:26 | 14.28459 | 101.82600 | 30890 ft | 430 kts | 46° |
| 2026-04-26 08:27 | 14.32062 | 101.87534 | 30897 ft | 433 kts | 53° |
| 2026-04-26 08:27 | 14.35041 | 101.92939 | 30899 ft | 436 kts | 61° |
| 2026-04-26 08:28 | 14.37349 | 101.98745 | 30900 ft | 439 kts | 67° |
| 2026-04-26 08:28 | 14.39374 | 102.04715 | 30895 ft | 439 kts | 67° |
| 2026-04-26 08:29 | 14.41381 | 102.10648 | 30881 ft | 439 kts | 67° |
| 2026-04-26 08:29 | 14.43394 | 102.16573 | 30863 ft | 439 kts | 67° |
| 2026-04-26 08:30 | 14.45410 | 102.22510 | 30847 ft | 439 kts | 67° |
| 2026-04-26 08:30 | 14.47427 | 102.28451 | 30835 ft | 440 kts | 67° |
| 2026-04-26 08:31 | 14.49445 | 102.34398 | 30830 ft | 441 kts | 67° |
| 2026-04-26 08:31 | 14.51477 | 102.40392 | 30826 ft | 441 kts | 67° |
| 2026-04-26 08:32 | 14.53491 | 102.46340 | 30828 ft | 441 kts | 67° |
| 2026-04-26 08:32 | 14.54509 | 102.49343 | 30961 ft | 446 kts | 67° |
| 2026-04-26 08:32 | 14.55532 | 102.52369 | 31375 ft | 447 kts | 67° |
| 2026-04-26 08:33 | 14.56546 | 102.55373 | 31766 ft | 449 kts | 67° |
| 2026-04-26 08:33 | 14.57578 | 102.58426 | 32109 ft | 452 kts | 67° |
| 2026-04-26 08:33 | 14.58613 | 102.61488 | 32441 ft | 455 kts | 66° |
| 2026-04-26 08:33 | 14.59658 | 102.64580 | 32773 ft | 458 kts | 66° |
| 2026-04-26 08:34 | 14.60706 | 102.67688 | 33130 ft | 461 kts | 67° |
| 2026-04-26 08:34 | 14.61771 | 102.70839 | 33472 ft | 464 kts | 67° |
| 2026-04-26 08:34 | 14.62826 | 102.73965 | 33813 ft | 467 kts | 67° |
| 2026-04-26 08:34 | 14.63901 | 102.77155 | 34143 ft | 470 kts | 68° |
| 2026-04-26 08:35 | 14.64969 | 102.80330 | 34503 ft | 472 kts | 68° |
| 2026-04-26 08:35 | 14.66053 | 102.83549 | 34862 ft | 474 kts | 68° |
| 2026-04-26 08:35 | 14.67126 | 102.86746 | 35167 ft | 477 kts | 68° |
| 2026-04-26 08:35 | 14.68217 | 102.89996 | 35484 ft | 479 kts | 68° |
| 2026-04-26 08:36 | 14.69309 | 102.93251 | 35915 ft | 479 kts | 68° |
| 2026-04-26 08:36 | 14.70382 | 102.96449 | 36348 ft | 478 kts | 68° |
| 2026-04-26 08:36 | 14.71476 | 102.99709 | 36746 ft | 478 kts | 68° |
| 2026-04-26 08:36 | 14.72562 | 103.02947 | 37117 ft | 478 kts | 68° |
| 2026-04-26 08:37 | 14.73640 | 103.06170 | 37421 ft | 479 kts | 68° |
| 2026-04-26 08:37 | 14.74730 | 103.09427 | 37678 ft | 481 kts | 68° |
| 2026-04-26 08:37 | 14.75819 | 103.12680 | 37933 ft | 483 kts | 68° |
| 2026-04-26 08:37 | 14.76925 | 103.15984 | 38196 ft | 484 kts | 69° |
| 2026-04-26 08:38 | 14.78016 | 103.19251 | 38448 ft | 486 kts | 69° |
| 2026-04-26 08:38 | 14.79117 | 103.22549 | 38703 ft | 487 kts | 69° |
| 2026-04-26 08:38 | 14.80219 | 103.25851 | 38816 ft | 490 kts | 69° |
| 2026-04-26 08:38 | 14.81324 | 103.29164 | 38819 ft | 490 kts | 69° |
| 2026-04-26 08:39 | 14.83641 | 103.35799 | 38814 ft | 489 kts | 65° |
| 2026-04-26 08:39 | 14.86570 | 103.42077 | 38810 ft | 487 kts | 58° |
| 2026-04-26 08:40 | 14.90205 | 103.47938 | 38809 ft | 485 kts | 51° |
| 2026-04-26 08:40 | 14.94448 | 103.53346 | 38809 ft | 484 kts | 46° |
| 2026-04-26 08:41 | 14.98860 | 103.58639 | 38810 ft | 484 kts | 46° |
| 2026-04-26 08:41 | 15.03231 | 103.63908 | 38809 ft | 485 kts | 46° |
| 2026-04-26 08:42 | 15.07624 | 103.69225 | 38808 ft | 485 kts | 46° |
| 2026-04-26 08:42 | 15.12110 | 103.74253 | 38812 ft | 469 kts | 39° |
| 2026-04-26 08:43 | 15.17114 | 103.78454 | 38810 ft | 464 kts | 31° |
| 2026-04-26 08:43 | 15.22662 | 103.81837 | 38808 ft | 459 kts | 22° |
| 2026-04-26 08:44 | 15.28499 | 103.84489 | 38806 ft | 458 kts | 19° |
| 2026-04-26 08:44 | 15.34408 | 103.87056 | 38804 ft | 459 kts | 19° |
| 2026-04-26 08:45 | 15.40287 | 103.89625 | 38801 ft | 459 kts | 19° |
| 2026-04-26 08:45 | 15.46145 | 103.92196 | 38796 ft | 459 kts | 19° |
| 2026-04-26 08:46 | 15.52045 | 103.94788 | 38791 ft | 459 kts | 19° |
| 2026-04-26 08:46 | 15.57941 | 103.97381 | 38791 ft | 460 kts | 19° |
| 2026-04-26 08:47 | 15.63854 | 103.99983 | 38794 ft | 461 kts | 19° |
| 2026-04-26 08:47 | 15.69764 | 104.02586 | 38800 ft | 461 kts | 19° |
| 2026-04-26 08:48 | 15.75657 | 104.05181 | 38805 ft | 461 kts | 19° |
| 2026-04-26 08:48 | 15.81603 | 104.07805 | 38809 ft | 461 kts | 19° |
| 2026-04-26 08:49 | 15.87512 | 104.10412 | 38812 ft | 462 kts | 19° |
| 2026-04-26 08:49 | 15.93409 | 104.13017 | 38813 ft | 462 kts | 19° |
| 2026-04-26 08:50 | 15.99301 | 104.15743 | 38814 ft | 465 kts | 23° |
| 2026-04-26 08:50 | 16.04883 | 104.19201 | 38818 ft | 469 kts | 31° |
| 2026-04-26 08:51 | 16.12359 | 104.25918 | 38825 ft | 477 kts | 43° |
| 2026-04-26 08:52 | 16.16824 | 104.31025 | 38826 ft | 478 kts | 44° |
| 2026-04-26 08:52 | 16.21261 | 104.36140 | 38824 ft | 478 kts | 44° |
| 2026-04-26 08:53 | 16.25747 | 104.41278 | 38826 ft | 478 kts | 44° |
| 2026-04-26 08:53 | 16.30188 | 104.46392 | 38823 ft | 478 kts | 44° |
| 2026-04-26 08:54 | 16.34644 | 104.51569 | 38824 ft | 479 kts | 44° |
| 2026-04-26 08:54 | 16.39081 | 104.56732 | 38825 ft | 479 kts | 44° |
| 2026-04-26 08:55 | 16.43497 | 104.61867 | 38828 ft | 479 kts | 44° |
| 2026-04-26 08:55 | 16.47957 | 104.67060 | 38833 ft | 479 kts | 44° |
| 2026-04-26 08:56 | 16.52369 | 104.72200 | 38838 ft | 479 kts | 44° |
| 2026-04-26 08:56 | 16.56640 | 104.77564 | 38839 ft | 483 kts | 50° |
| 2026-04-26 08:57 | 16.60410 | 104.83406 | 38838 ft | 486 kts | 54° |
| 2026-04-26 08:57 | 16.64047 | 104.89346 | 38828 ft | 486 kts | 54° |
| 2026-04-26 08:58 | 16.67669 | 104.95251 | 38825 ft | 487 kts | 54° |
| 2026-04-26 08:58 | 16.71319 | 105.01186 | 38816 ft | 486 kts | 53° |
| 2026-04-26 08:59 | 16.74971 | 105.07122 | 38812 ft | 487 kts | 53° |
| 2026-04-26 08:59 | 16.78610 | 105.13042 | 38804 ft | 486 kts | 53° |
| 2026-04-26 09:00 | 16.82273 | 105.19012 | 38806 ft | 486 kts | 53° |
| 2026-04-26 09:00 | 16.85910 | 105.24941 | 38800 ft | 486 kts | 53° |
| 2026-04-26 09:01 | 16.89538 | 105.30866 | 38807 ft | 485 kts | 53° |
| 2026-04-26 09:01 | 16.93159 | 105.36784 | 38817 ft | 486 kts | 53° |
| 2026-04-26 09:02 | 16.96793 | 105.42734 | 38835 ft | 486 kts | 53° |
| 2026-04-26 09:02 | 17.00416 | 105.48666 | 38839 ft | 487 kts | 53° |
| 2026-04-26 09:03 | 17.04063 | 105.54648 | 38841 ft | 489 kts | 53° |
| 2026-04-26 09:03 | 17.07707 | 105.60630 | 38841 ft | 488 kts | 53° |
| 2026-04-26 09:04 | 17.11347 | 105.66610 | 38841 ft | 489 kts | 53° |
| 2026-04-26 09:04 | 17.14996 | 105.72606 | 38840 ft | 489 kts | 53° |
| 2026-04-26 09:05 | 17.18646 | 105.78613 | 38843 ft | 489 kts | 53° |
| 2026-04-26 09:05 | 17.22269 | 105.84585 | 38849 ft | 489 kts | 53° |
| 2026-04-26 09:06 | 17.25904 | 105.90575 | 38847 ft | 489 kts | 53° |
| 2026-04-26 09:06 | 17.29540 | 105.96575 | 38849 ft | 489 kts | 53° |
| 2026-04-26 09:07 | 17.33176 | 106.02583 | 38860 ft | 489 kts | 53° |
| 2026-04-26 09:07 | 17.36815 | 106.08595 | 38888 ft | 489 kts | 53° |
| 2026-04-26 09:08 | 17.40500 | 106.14584 | 38905 ft | 489 kts | 53° |
| 2026-04-26 09:08 | 17.44187 | 106.20551 | 38906 ft | 487 kts | 53° |
| 2026-04-26 09:09 | 17.47846 | 106.26487 | 38895 ft | 486 kts | 53° |
| 2026-04-26 09:09 | 17.51507 | 106.32434 | 38874 ft | 487 kts | 53° |
| 2026-04-26 09:10 | 17.55189 | 106.38424 | 38861 ft | 489 kts | 53° |
| 2026-04-26 09:10 | 17.58856 | 106.44398 | 38850 ft | 488 kts | 53° |
| 2026-04-26 09:11 | 17.62513 | 106.50359 | 38369 ft | 490 kts | 53° |
| 2026-04-26 09:11 | 17.64361 | 106.53377 | 37927 ft | 490 kts | 53° |
| 2026-04-26 09:11 | 17.66184 | 106.56358 | 37492 ft | 491 kts | 52° |
| 2026-04-26 09:11 | 17.68046 | 106.59399 | 37052 ft | 494 kts | 52° |
| 2026-04-26 09:12 | 17.69893 | 106.62419 | 36616 ft | 494 kts | 52° |
| 2026-04-26 09:12 | 17.71733 | 106.65434 | 36184 ft | 494 kts | 52° |
| 2026-04-26 09:12 | 17.73601 | 106.68498 | 35741 ft | 495 kts | 52° |
| 2026-04-26 09:12 | 17.75445 | 106.71525 | 35310 ft | 495 kts | 52° |
| 2026-04-26 09:13 | 17.77292 | 106.74560 | 34881 ft | 494 kts | 52° |
| 2026-04-26 09:13 | 17.79135 | 106.77590 | 34453 ft | 495 kts | 52° |
| 2026-04-26 09:13 | 17.80980 | 106.80624 | 34025 ft | 496 kts | 52° |
| 2026-04-26 09:13 | 17.82852 | 106.83705 | 33597 ft | 495 kts | 52° |
| 2026-04-26 09:14 | 17.84697 | 106.86741 | 33173 ft | 496 kts | 52° |
| 2026-04-26 09:14 | 17.86547 | 106.89785 | 32756 ft | 496 kts | 51° |
| 2026-04-26 09:14 | 17.88394 | 106.92827 | 32368 ft | 495 kts | 52° |
| 2026-04-26 09:14 | 17.90251 | 106.95867 | 31987 ft | 496 kts | 51° |
| 2026-04-26 09:15 | 17.92123 | 106.98924 | 31604 ft | 497 kts | 52° |
| 2026-04-26 09:15 | 17.94002 | 107.01992 | 31219 ft | 498 kts | 52° |
| 2026-04-26 09:15 | 17.95853 | 107.05019 | 30841 ft | 499 kts | 52° |
| 2026-04-26 09:15 | 17.97735 | 107.08102 | 30456 ft | 500 kts | 52° |
| 2026-04-26 09:16 | 17.99606 | 107.11167 | 30074 ft | 502 kts | 53° |
| 2026-04-26 09:16 | 18.01497 | 107.14271 | 29692 ft | 504 kts | 53° |
| 2026-04-26 09:16 | 18.03372 | 107.17355 | 29313 ft | 505 kts | 53° |
| 2026-04-26 09:16 | 18.05284 | 107.20496 | 28928 ft | 507 kts | 53° |
| 2026-04-26 09:17 | 18.07176 | 107.23605 | 28552 ft | 508 kts | 53° |
| 2026-04-26 09:17 | 18.09081 | 107.26739 | 28178 ft | 508 kts | 53° |
| 2026-04-26 09:17 | 18.10988 | 107.29876 | 27806 ft | 509 kts | 53° |
| 2026-04-26 09:17 | 18.12898 | 107.33019 | 27432 ft | 510 kts | 54° |
| 2026-04-26 09:18 | 18.14785 | 107.36128 | 27063 ft | 511 kts | 54° |
| 2026-04-26 09:18 | 18.16701 | 107.39288 | 26691 ft | 512 kts | 54° |
| 2026-04-26 09:18 | 18.18609 | 107.42441 | 26319 ft | 512 kts | 54° |
| 2026-04-26 09:18 | 18.20515 | 107.45589 | 25951 ft | 513 kts | 54° |
| 2026-04-26 09:19 | 18.22431 | 107.48756 | 25634 ft | 509 kts | 54° |
| 2026-04-26 09:19 | 18.24299 | 107.51848 | 25410 ft | 498 kts | 54° |
| 2026-04-26 09:19 | 18.26137 | 107.54894 | 25208 ft | 485 kts | 54° |
| 2026-04-26 09:19 | 18.27911 | 107.57834 | 24903 ft | 476 kts | 54° |
| 2026-04-26 09:20 | 18.29672 | 107.60748 | 24526 ft | 470 kts | 54° |
| 2026-04-26 09:20 | 18.31442 | 107.63674 | 24450 ft | 472 kts | 54° |
| 2026-04-26 09:20 | 18.33233 | 107.66575 | 24445 ft | 474 kts | 52° |
| 2026-04-26 09:20 | 18.35156 | 107.69377 | 24443 ft | 468 kts | 50° |
| 2026-04-26 09:21 | 18.37165 | 107.72016 | 24444 ft | 451 kts | 47° |
| 2026-04-26 09:21 | 18.39122 | 107.74508 | 24451 ft | 444 kts | 47° |
| 2026-04-26 09:21 | 18.41102 | 107.77008 | 24451 ft | 444 kts | 47° |
| 2026-04-26 09:21 | 18.43086 | 107.79510 | 24452 ft | 445 kts | 47° |
| 2026-04-26 09:22 | 18.45083 | 107.82037 | 24452 ft | 446 kts | 47° |
| 2026-04-26 09:22 | 18.47053 | 107.84534 | 24371 ft | 445 kts | 47° |
| 2026-04-26 09:22 | 18.49016 | 107.87025 | 24116 ft | 441 kts | 47° |
| 2026-04-26 09:22 | 18.50972 | 107.89513 | 23692 ft | 437 kts | 47° |
| 2026-04-26 09:23 | 18.52896 | 107.91960 | 23233 ft | 435 kts | 47° |
| 2026-04-26 09:23 | 18.54821 | 107.94408 | 22776 ft | 432 kts | 47° |
| 2026-04-26 09:23 | 18.56712 | 107.96814 | 22337 ft | 429 kts | 47° |
| 2026-04-26 09:23 | 18.58620 | 107.99242 | 21891 ft | 427 kts | 48° |
| 2026-04-26 09:24 | 18.60516 | 108.01658 | 21461 ft | 425 kts | 48° |
| 2026-04-26 09:24 | 18.62391 | 108.04045 | 21041 ft | 422 kts | 48° |
| 2026-04-26 09:24 | 18.64245 | 108.06409 | 20675 ft | 418 kts | 49° |
| 2026-04-26 09:24 | 18.66087 | 108.08759 | 20557 ft | 417 kts | 49° |
| 2026-04-26 09:25 | 18.67932 | 108.11116 | 20553 ft | 418 kts | 49° |
| 2026-04-26 09:25 | 18.69784 | 108.13483 | 20559 ft | 419 kts | 49° |
| 2026-04-26 09:25 | 18.71660 | 108.15881 | 20562 ft | 420 kts | 49° |
| 2026-04-26 09:25 | 18.73515 | 108.18251 | 20566 ft | 421 kts | 49° |
| 2026-04-26 09:26 | 18.75373 | 108.20627 | 20569 ft | 420 kts | 49° |
| 2026-04-26 09:26 | 18.77220 | 108.22987 | 20571 ft | 420 kts | 49° |
| 2026-04-26 09:26 | 18.79087 | 108.25376 | 20572 ft | 419 kts | 49° |
| 2026-04-26 09:26 | 18.80928 | 108.27732 | 20574 ft | 419 kts | 49° |
| 2026-04-26 09:27 | 18.82798 | 108.30126 | 20578 ft | 419 kts | 49° |
| 2026-04-26 09:27 | 18.84649 | 108.32496 | 20579 ft | 420 kts | 49° |
| 2026-04-26 09:27 | 18.86506 | 108.34873 | 20579 ft | 419 kts | 49° |
| 2026-04-26 09:27 | 18.88358 | 108.37246 | 20580 ft | 420 kts | 49° |
| 2026-04-26 09:28 | 18.90216 | 108.39629 | 20580 ft | 420 kts | 49° |
| 2026-04-26 09:28 | 18.92070 | 108.42008 | 20582 ft | 420 kts | 49° |
| 2026-04-26 09:28 | 18.93930 | 108.44395 | 20579 ft | 420 kts | 49° |
| 2026-04-26 09:28 | 18.95791 | 108.46782 | 20581 ft | 420 kts | 49° |
| 2026-04-26 09:29 | 18.97645 | 108.49165 | 20582 ft | 420 kts | 49° |
| 2026-04-26 09:29 | 18.99507 | 108.51555 | 20581 ft | 421 kts | 49° |
| 2026-04-26 09:29 | 19.01349 | 108.53922 | 20581 ft | 421 kts | 49° |
| 2026-04-26 09:29 | 19.03210 | 108.56315 | 20584 ft | 421 kts | 49° |
| 2026-04-26 09:30 | 19.05075 | 108.58713 | 20577 ft | 420 kts | 49° |
| 2026-04-26 09:30 | 19.06926 | 108.61093 | 20376 ft | 419 kts | 49° |
| 2026-04-26 09:30 | 19.08779 | 108.63477 | 20139 ft | 417 kts | 49° |
| 2026-04-26 09:30 | 19.10619 | 108.65847 | 19904 ft | 415 kts | 50° |
| 2026-04-26 09:31 | 19.12432 | 108.68181 | 19670 ft | 413 kts | 50° |
| 2026-04-26 09:31 | 19.14262 | 108.70541 | 19436 ft | 412 kts | 50° |
| 2026-04-26 09:31 | 19.16066 | 108.72864 | 19199 ft | 410 kts | 50° |
| 2026-04-26 09:31 | 19.17860 | 108.75179 | 18965 ft | 408 kts | 50° |
| 2026-04-26 09:32 | 19.19653 | 108.77491 | 18737 ft | 406 kts | 50° |
| 2026-04-26 09:32 | 19.21461 | 108.79825 | 18501 ft | 405 kts | 50° |
| 2026-04-26 09:32 | 19.23229 | 108.82106 | 18265 ft | 403 kts | 50° |
| 2026-04-26 09:32 | 19.25007 | 108.84403 | 18040 ft | 402 kts | 50° |
| 2026-04-26 09:33 | 19.26779 | 108.86692 | 17807 ft | 400 kts | 51° |
| 2026-04-26 09:33 | 19.28522 | 108.88944 | 17574 ft | 398 kts | 51° |
| 2026-04-26 09:33 | 19.30293 | 108.91235 | 17331 ft | 397 kts | 51° |
| 2026-04-26 09:33 | 19.32030 | 108.93483 | 17101 ft | 395 kts | 51° |
| 2026-04-26 09:34 | 19.33760 | 108.95724 | 16873 ft | 393 kts | 51° |
| 2026-04-26 09:34 | 19.35490 | 108.97964 | 16655 ft | 392 kts | 51° |
| 2026-04-26 09:34 | 19.37207 | 109.00188 | 16601 ft | 391 kts | 51° |
| 2026-04-26 09:34 | 19.38935 | 109.02427 | 16599 ft | 391 kts | 51° |
| 2026-04-26 09:35 | 19.40658 | 109.04659 | 16593 ft | 390 kts | 51° |
| 2026-04-26 09:35 | 19.42367 | 109.06875 | 16575 ft | 388 kts | 51° |
| 2026-04-26 09:35 | 19.44081 | 109.09098 | 16171 ft | 389 kts | 51° |
| 2026-04-26 09:35 | 19.45803 | 109.11331 | 15420 ft | 397 kts | 51° |
| 2026-04-26 09:36 | 19.47539 | 109.13583 | 14892 ft | 397 kts | 51° |
| 2026-04-26 09:36 | 19.49279 | 109.15843 | 14468 ft | 394 kts | 51° |
| 2026-04-26 09:36 | 19.51010 | 109.18093 | 14043 ft | 390 kts | 51° |
| 2026-04-26 09:36 | 19.52704 | 109.20298 | 13639 ft | 387 kts | 51° |
| 2026-04-26 09:37 | 19.54396 | 109.22518 | 13201 ft | 385 kts | 51° |
| 2026-04-26 09:37 | 19.56055 | 109.24701 | 12768 ft | 382 kts | 51° |
| 2026-04-26 09:37 | 19.57713 | 109.26884 | 12347 ft | 380 kts | 51° |
| 2026-04-26 09:37 | 19.59360 | 109.29054 | 11933 ft | 376 kts | 51° |
| 2026-04-26 09:38 | 19.60985 | 109.31194 | 11647 ft | 360 kts | 51° |
| 2026-04-26 09:38 | 19.62510 | 109.33201 | 11678 ft | 338 kts | 51° |
| 2026-04-26 09:38 | 19.63952 | 109.35099 | 11676 ft | 320 kts | 52° |
| 2026-04-26 09:38 | 19.65321 | 109.36904 | 11456 ft | 310 kts | 52° |
| 2026-04-26 09:39 | 19.66650 | 109.38657 | 10960 ft | 307 kts | 52° |
| 2026-04-26 09:39 | 19.67988 | 109.40424 | 10350 ft | 305 kts | 51° |
| 2026-04-26 09:39 | 19.69310 | 109.42169 | 9757 ft | 302 kts | 51° |
| 2026-04-26 09:39 | 19.70600 | 109.43873 | 9178 ft | 299 kts | 51° |
| 2026-04-26 09:40 | 19.71909 | 109.45598 | 8602 ft | 296 kts | 52° |
| 2026-04-26 09:40 | 19.73184 | 109.47279 | 8038 ft | 293 kts | 52° |
| 2026-04-26 09:40 | 19.74457 | 109.48960 | 7475 ft | 289 kts | 52° |
| 2026-04-26 09:40 | 19.75694 | 109.50593 | 6976 ft | 286 kts | 52° |
| 2026-04-26 09:41 | 19.76935 | 109.52232 | 6560 ft | 283 kts | 52° |
| 2026-04-26 09:41 | 19.78172 | 109.53867 | 6218 ft | 281 kts | 52° |
| 2026-04-26 09:41 | 19.79390 | 109.55479 | 6037 ft | 277 kts | 52° |
| 2026-04-26 09:41 | 19.80587 | 109.57061 | 5925 ft | 271 kts | 52° |
| 2026-04-26 09:42 | 19.81750 | 109.58599 | 5908 ft | 260 kts | 52° |
| 2026-04-26 09:42 | 19.82853 | 109.60060 | 5903 ft | 250 kts | 52° |
| 2026-04-26 09:42 | 19.83923 | 109.61478 | 5901 ft | 240 kts | 52° |
| 2026-04-26 09:42 | 19.84942 | 109.62824 | 5898 ft | 230 kts | 52° |
| 2026-04-26 09:43 | 19.85924 | 109.64127 | 5901 ft | 223 kts | 52° |
| 2026-04-26 09:43 | 19.86901 | 109.65421 | 5912 ft | 224 kts | 53° |
| 2026-04-26 09:43 | 19.87879 | 109.66718 | 5910 ft | 224 kts | 53° |
| 2026-04-26 09:43 | 19.88845 | 109.68000 | 5905 ft | 224 kts | 53° |
| 2026-04-26 09:44 | 19.89823 | 109.69299 | 5906 ft | 223 kts | 53° |
| 2026-04-26 09:44 | 19.90793 | 109.70582 | 5901 ft | 224 kts | 53° |
| 2026-04-26 09:44 | 19.91763 | 109.71870 | 5904 ft | 223 kts | 53° |
| 2026-04-26 09:44 | 19.92513 | 109.73302 | 5889 ft | 219 kts | 79° |
| 2026-04-26 09:45 | 19.92667 | 109.74902 | 5911 ft | 218 kts | 90° |
| 2026-04-26 09:45 | 19.92693 | 109.76492 | 5774 ft | 217 kts | 90° |
| 2026-04-26 09:45 | 19.92729 | 109.78097 | 5511 ft | 218 kts | 89° |
| 2026-04-26 09:45 | 19.92794 | 109.79726 | 5285 ft | 218 kts | 88° |
| 2026-04-26 09:46 | 19.92880 | 109.81325 | 5078 ft | 217 kts | 88° |
| 2026-04-26 09:46 | 19.92981 | 109.82925 | 4881 ft | 216 kts | 87° |
| 2026-04-26 09:46 | 19.93088 | 109.84500 | 4693 ft | 214 kts | 87° |
| 2026-04-26 09:46 | 19.93198 | 109.86063 | 4491 ft | 212 kts | 87° |
| 2026-04-26 09:47 | 19.93310 | 109.87626 | 4295 ft | 211 kts | 86° |
| 2026-04-26 09:47 | 19.93423 | 109.89168 | 4091 ft | 210 kts | 86° |
| 2026-04-26 09:47 | 19.93536 | 109.90710 | 3889 ft | 209 kts | 86° |
| 2026-04-26 09:47 | 19.93649 | 109.92245 | 3689 ft | 208 kts | 86° |
| 2026-04-26 09:48 | 19.93762 | 109.93778 | 3498 ft | 207 kts | 86° |
| 2026-04-26 09:48 | 19.93875 | 109.95297 | 3311 ft | 205 kts | 86° |
| 2026-04-26 09:48 | 19.93987 | 109.96798 | 3111 ft | 205 kts | 87° |
| 2026-04-26 09:48 | 19.94098 | 109.98300 | 3031 ft | 202 kts | 87° |
| 2026-04-26 09:49 | 19.94208 | 109.99801 | 3028 ft | 204 kts | 87° |
| 2026-04-26 09:49 | 19.94318 | 110.01305 | 3024 ft | 203 kts | 87° |
| 2026-04-26 09:49 | 19.94427 | 110.02797 | 3022 ft | 203 kts | 87° |
| 2026-04-26 09:49 | 19.94537 | 110.04291 | 3024 ft | 202 kts | 87° |
| 2026-04-26 09:50 | 19.94647 | 110.05785 | 3022 ft | 202 kts | 87° |
| 2026-04-26 09:50 | 19.94756 | 110.07272 | 3022 ft | 202 kts | 87° |
| 2026-04-26 09:50 | 19.94864 | 110.08754 | 3022 ft | 202 kts | 87° |
| 2026-04-26 09:50 | 19.94972 | 110.10236 | 3025 ft | 202 kts | 87° |
| 2026-04-26 09:51 | 19.95081 | 110.11737 | 3021 ft | 202 kts | 87° |
| 2026-04-26 09:51 | 19.95189 | 110.13218 | 3022 ft | 202 kts | 87° |
| 2026-04-26 09:51 | 19.95258 | 110.14721 | 3018 ft | 201 kts | 89° |
| 2026-04-26 09:51 | 19.95294 | 110.16163 | 3002 ft | 191 kts | 90° |
| 2026-04-26 09:52 | 19.95315 | 110.17530 | 2996 ft | 180 kts | 90° |
| 2026-04-26 09:52 | 19.95332 | 110.20087 | 3026 ft | 172 kts | 91° |
| 2026-04-26 09:52 | 19.95335 | 110.21362 | 3026 ft | 172 kts | 91° |
| 2026-04-26 09:53 | 19.95336 | 110.22635 | 3020 ft | 171 kts | 91° |
| 2026-04-26 09:53 | 19.95337 | 110.23898 | 3019 ft | 171 kts | 91° |
| 2026-04-26 09:53 | 19.95337 | 110.25157 | 3019 ft | 171 kts | 91° |
| 2026-04-26 09:53 | 19.95337 | 110.26420 | 3014 ft | 170 kts | 91° |
| 2026-04-26 09:54 | 19.95338 | 110.27679 | 3004 ft | 171 kts | 91° |
| 2026-04-26 09:54 | 19.95338 | 110.28947 | 2829 ft | 171 kts | 91° |
| 2026-04-26 09:54 | 19.95340 | 110.30215 | 2616 ft | 171 kts | 91° |
| 2026-04-26 09:54 | 19.95341 | 110.31484 | 2401 ft | 171 kts | 91° |
| 2026-04-26 09:55 | 19.95344 | 110.32734 | 2186 ft | 167 kts | 91° |
| 2026-04-26 09:55 | 19.95346 | 110.33947 | 1981 ft | 160 kts | 91° |
| 2026-04-26 09:55 | 19.95348 | 110.35092 | 1772 ft | 153 kts | 90° |
| 2026-04-26 09:55 | 19.95350 | 110.36193 | 1572 ft | 145 kts | 91° |
| 2026-04-26 09:56 | 19.95352 | 110.37246 | 1389 ft | 138 kts | 90° |
| 2026-04-26 09:56 | 19.95354 | 110.38242 | 1216 ft | 131 kts | 90° |
| 2026-04-26 09:56 | 19.95356 | 110.39199 | 1064 ft | 131 kts | 90° |
| 2026-04-26 09:56 | 19.95358 | 110.40162 | 907 ft | 130 kts | 89° |
| 2026-04-26 09:57 | 19.95361 | 110.41129 | 743 ft | 130 kts | 89° |
| 2026-04-26 09:57 | 19.95370 | 110.42068 | 583 ft | 130 kts | 88° |
| 2026-04-26 09:57 | 19.95371 | 110.42152 | 569 ft | 130 kts | 88° |
| 2026-04-26 09:57 | 19.95365 | 110.43106 | 394 ft | 130 kts | 90° |
| 2026-04-26 09:58 | 19.95357 | 110.44054 | 229 ft | 129 kts | 88° |
| 2026-04-26 09:58 | 19.95367 | 110.45016 | 78 ft | 128 kts | 87° |
| 2026-04-26 09:58 | 19.95378 | 110.45857 | 76 ft | 90 kts | 92° |
| 2026-04-26 09:58 | 19.95379 | 110.46336 | 64 ft | 40 kts | 91° |
| 2026-04-26 09:59 | 19.95350 | 110.46565 | 63 ft | 25 kts | 116° |
| 2026-04-26 09:59 | 19.95284 | 110.46694 | 63 ft | 11 kts | 129° |
| 2026-04-26 09:59 | 19.95229 | 110.46701 | 62 ft | 8 kts | 217° |
| 2026-04-26 09:59 | 19.95207 | 110.46632 | 61 ft | 10 kts | 265° |
| 2026-04-26 10:00 | 19.95204 | 110.46551 | 63 ft | 11 kts | 269° |
| 2026-04-26 10:00 | 19.95205 | 110.46466 | 64 ft | 12 kts | 270° |
| 2026-04-26 10:00 | 19.95206 | 110.46376 | 65 ft | 12 kts | 270° |
| 2026-04-26 10:00 | 19.95206 | 110.46287 | 68 ft | 11 kts | 269° |
| 2026-04-26 10:01 | 19.95205 | 110.46209 | 71 ft | 10 kts | 270° |
| 2026-04-26 10:01 | 19.95205 | 110.46138 | 73 ft | 9 kts | 270° |
| 2026-04-26 10:01 | 19.95205 | 110.46070 | 75 ft | 9 kts | 270° |
| 2026-04-26 10:01 | 19.95204 | 110.46005 | 76 ft | 8 kts | 261° |
| 2026-04-26 10:02 | 19.95164 | 110.45966 | 77 ft | 9 kts | 186° |
| 2026-04-26 10:02 | 19.95100 | 110.45965 | 78 ft | 9 kts | 179° |
| 2026-04-26 10:02 | 19.95036 | 110.45966 | 79 ft | 9 kts | 180° |
| 2026-04-26 10:02 | 19.94967 | 110.45971 | 79 ft | 10 kts | 172° |
| 2026-04-26 10:03 | 19.94927 | 110.45976 | 79 ft | 0 kts | 172° |
| 2026-04-26 10:03 | 19.94923 | 110.45977 | 79 ft | 1 kts | 173° |